createdAt,value
2018-06-11T00:00:18.577Z,23.47
2018-06-11T00:02:47.800Z,22.20
2018-06-11T00:05:16.977Z,23.27
2018-06-11T00:07:46.121Z,22.70
2018-06-11T00:10:15.247Z,23.70
2018-06-11T00:12:44.402Z,23.27
2018-06-11T00:15:13.520Z,23.33
2018-06-11T00:17:42.664Z,24.50
2018-06-11T00:20:11.776Z,23.23
2018-06-11T00:22:40.857Z,24.10
2018-06-11T00:25:10.001Z,24.30
2018-06-11T00:27:39.151Z,24.23
2018-06-11T00:30:08.317Z,26.73
2018-06-11T00:32:37.546Z,24.23
2018-06-11T00:35:06.628Z,23.87
2018-06-11T00:37:35.774Z,24.70
2018-06-11T00:40:04.891Z,25.37
2018-06-11T00:42:33.982Z,24.30
2018-06-11T00:45:03.149Z,23.13
2018-06-11T00:47:32.248Z,23.33
2018-06-11T00:50:01.431Z,23.97
2018-06-11T00:52:30.548Z,24.87
2018-06-11T00:54:59.683Z,24.00
2018-06-11T00:57:28.779Z,22.00
2018-06-11T00:59:58.467Z,23.13
2018-06-11T01:02:27.563Z,23.50
2018-06-11T01:04:56.764Z,26.73
2018-06-11T01:07:25.873Z,25.60
2018-06-11T01:09:55.650Z,23.67
2018-06-11T01:12:24.749Z,26.00
2018-06-11T01:14:53.933Z,24.87
2018-06-11T01:17:23.006Z,29.30
2018-06-11T01:19:52.867Z,26.30
2018-06-11T01:22:22.075Z,26.87
2018-06-11T01:24:51.166Z,24.70
2018-06-11T01:27:21.132Z,24.13
2018-06-11T01:29:50.256Z,25.73
2018-06-11T01:32:19.646Z,25.27
2018-06-11T01:34:48.822Z,26.73
2018-06-11T01:37:17.980Z,25.60
2018-06-11T01:39:47.119Z,28.27
2018-06-11T01:42:16.316Z,27.30
2018-06-11T01:44:45.554Z,24.90
2018-06-11T01:47:14.711Z,26.23
2018-06-11T01:49:43.883Z,27.00
2018-06-11T01:52:13.075Z,27.80
2018-06-11T01:54:42.235Z,26.97
2018-06-11T01:57:12.032Z,27.90
2018-06-11T01:59:41.181Z,27.87
2018-06-11T02:02:11.295Z,29.97
2018-06-11T02:04:40.426Z,29.90
2018-06-11T02:07:09.554Z,29.97
2018-06-11T02:09:38.703Z,29.10
2018-06-11T02:12:07.846Z,28.10
2018-06-11T02:14:36.963Z,29.83
2018-06-11T02:17:06.108Z,29.80
2018-06-11T02:19:35.230Z,29.40
2018-06-11T02:22:04.820Z,29.43
2018-06-11T02:24:33.984Z,33.93
2018-06-11T02:27:03.132Z,36.87
2018-06-11T02:29:32.228Z,31.53
2018-06-11T02:32:01.372Z,31.93
2018-06-11T02:34:30.515Z,31.63
2018-06-11T02:36:59.605Z,31.17
2018-06-11T02:39:28.791Z,31.50
2018-06-11T02:41:57.912Z,31.90
2018-06-11T02:44:28.184Z,32.10
2018-06-11T02:47:14.230Z,30.40
2018-06-11T02:49:46.397Z,31.03
2018-06-11T02:52:15.552Z,29.73
2018-06-11T02:54:44.696Z,30.87
2018-06-11T02:57:13.772Z,30.73
2018-06-11T02:59:42.909Z,29.17
2018-06-11T03:02:12.060Z,32.70
2018-06-11T03:04:41.169Z,30.63
2018-06-11T03:07:10.288Z,30.93
2018-06-11T03:09:39.435Z,29.93
2018-06-11T03:12:08.548Z,30.77
2018-06-11T03:14:37.623Z,33.57
2018-06-11T03:17:06.820Z,32.13
2018-06-11T03:19:35.908Z,30.70
2018-06-11T03:22:11.496Z,30.73
2018-06-11T03:24:40.653Z,32.50
2018-06-11T03:27:09.875Z,31.10
2018-06-11T03:29:38.947Z,32.27
2018-06-11T03:32:08.077Z,38.83
2018-06-11T03:34:37.181Z,32.57
2018-06-11T03:37:06.339Z,34.30
2018-06-11T03:39:35.453Z,32.53
2018-06-11T03:42:22.133Z,32.63
2018-06-11T03:44:55.051Z,33.20
2018-06-11T03:47:24.337Z,31.40
2018-06-11T03:49:53.559Z,36.53
2018-06-11T03:52:22.834Z,33.00
2018-06-11T03:54:51.961Z,30.17
2018-06-11T03:57:21.129Z,32.07
2018-06-11T03:59:50.346Z,32.43
2018-06-11T04:02:19.761Z,29.83
2018-06-11T04:04:48.918Z,30.73
2018-06-11T04:07:18.045Z,34.40
2018-06-11T04:09:47.212Z,31.73
2018-06-11T04:12:16.298Z,32.57
2018-06-11T04:14:45.406Z,35.37
2018-06-11T04:17:14.597Z,35.23
2018-06-11T04:19:43.785Z,34.80
2018-06-11T04:22:12.940Z,33.23
2018-06-11T04:24:42.101Z,36.47
2018-06-11T04:27:11.277Z,34.93
2018-06-11T04:29:40.400Z,33.67
2018-06-11T04:32:09.573Z,29.83
2018-06-11T04:34:38.682Z,28.70
2018-06-11T04:37:07.872Z,33.80
2018-06-11T04:39:37.175Z,31.07
2018-06-11T04:42:06.386Z,29.57
2018-06-11T04:44:35.767Z,28.03
2018-06-11T04:47:05.098Z,29.17
2018-06-11T04:49:34.261Z,27.07
2018-06-11T04:52:03.414Z,32.57
2018-06-11T04:54:32.582Z,28.30
2018-06-11T04:57:01.792Z,27.60
2018-06-11T04:59:31.055Z,29.07
2018-06-11T05:02:00.348Z,28.83
2018-06-11T05:04:29.523Z,31.13
2018-06-11T05:06:58.691Z,29.40
2018-06-11T05:09:27.908Z,28.33
2018-06-11T05:11:57.040Z,28.50
2018-06-11T05:14:26.198Z,30.90
2018-06-11T05:16:56.183Z,29.53
2018-06-11T05:19:25.576Z,31.20
2018-06-11T05:21:54.888Z,33.07
2018-06-11T05:24:24.412Z,32.47
2018-06-11T05:26:53.594Z,31.03
2018-06-11T05:29:22.933Z,32.07
2018-06-11T05:31:52.150Z,33.03
2018-06-11T05:34:21.558Z,32.20
2018-06-11T05:36:51.717Z,34.37
2018-06-11T05:39:20.911Z,31.60
2018-06-11T05:41:50.118Z,35.20
2018-06-11T05:44:19.238Z,33.03
2018-06-11T05:46:48.375Z,31.23
2018-06-11T05:49:17.565Z,36.07
2018-06-11T05:51:46.701Z,40.43
2018-06-11T05:54:15.918Z,40.67
2018-06-11T05:56:45.089Z,39.47
2018-06-11T05:59:14.260Z,39.70
2018-06-11T06:01:43.405Z,38.70
2018-06-11T06:04:12.541Z,39.67
2018-06-11T06:06:41.940Z,34.80
2018-06-11T06:09:11.090Z,37.13
2018-06-11T06:11:40.232Z,36.73
2018-06-11T06:14:09.495Z,39.53
2018-06-11T06:16:38.635Z,38.23
2018-06-11T06:19:07.831Z,36.27
2018-06-11T06:21:37.098Z,39.03
2018-06-11T06:24:06.431Z,36.60
2018-06-11T06:26:35.624Z,36.83
2018-06-11T06:29:05.076Z,34.03
2018-06-11T06:31:34.244Z,33.93
2018-06-11T06:34:03.452Z,35.40
2018-06-11T06:36:32.591Z,36.47
2018-06-11T06:39:01.736Z,35.23
2018-06-11T06:41:30.913Z,31.93
2018-06-11T06:44:00.030Z,29.70
2018-06-11T06:46:29.211Z,30.03
2018-06-11T06:48:58.468Z,32.93
2018-06-11T06:51:27.632Z,29.83
2018-06-11T06:53:56.798Z,32.80
2018-06-11T06:56:26.001Z,30.67
2018-06-11T06:58:55.111Z,30.20
2018-06-11T07:01:24.269Z,29.97
2018-06-11T07:03:53.378Z,32.47
2018-06-11T07:06:22.685Z,30.90
2018-06-11T07:08:51.839Z,29.07
2018-06-11T07:11:20.976Z,27.33
2018-06-11T07:13:50.209Z,28.57
2018-06-11T07:16:19.525Z,29.07
2018-06-11T07:18:48.703Z,31.47
2018-06-11T07:21:17.863Z,31.37
2018-06-11T07:23:46.988Z,29.37
2018-06-11T07:26:16.161Z,29.20
2018-06-11T07:28:45.325Z,31.83
2018-06-11T07:31:14.450Z,30.13
2018-06-11T07:33:43.727Z,31.90
2018-06-11T07:36:12.911Z,27.43
2018-06-11T07:38:42.038Z,32.20
2018-06-11T07:41:11.234Z,28.27
2018-06-11T07:43:40.344Z,27.83
2018-06-11T07:46:09.529Z,29.10
2018-06-11T07:48:38.762Z,26.17
2018-06-11T07:51:07.933Z,24.90
2018-06-11T07:53:37.125Z,25.63
2018-06-11T07:56:06.308Z,26.60
2018-06-11T07:58:35.513Z,26.10
2018-06-11T08:01:04.717Z,24.97
2018-06-11T08:03:33.894Z,26.60
2018-06-11T08:06:03.055Z,28.57
2018-06-11T08:08:32.208Z,28.03
2018-06-11T08:11:01.369Z,28.13
2018-06-11T08:13:30.627Z,25.07
2018-06-11T08:15:59.764Z,23.77
2018-06-11T08:18:28.876Z,24.23
2018-06-11T08:20:58.129Z,26.30
2018-06-11T08:23:27.260Z,26.83
2018-06-11T08:25:56.445Z,26.60
2018-06-11T08:28:25.585Z,25.23
2018-06-11T08:30:54.793Z,24.70
2018-06-11T08:33:24.168Z,24.07
2018-06-11T08:35:53.318Z,25.10
2018-06-11T08:38:22.695Z,25.80
2018-06-11T08:40:51.982Z,26.13
2018-06-11T08:43:21.124Z,26.57
2018-06-11T08:45:50.412Z,23.67
2018-06-11T08:48:19.614Z,26.03
2018-06-11T08:50:48.852Z,24.47
2018-06-11T08:53:18.498Z,25.60
2018-06-11T08:55:47.738Z,24.67
2018-06-11T08:58:17.877Z,23.87
2018-06-11T09:00:47.108Z,24.53
2018-06-11T09:03:16.318Z,23.23
2018-06-11T09:05:45.573Z,22.20
2018-06-11T09:08:14.674Z,21.30
2018-06-11T09:10:43.798Z,20.77
2018-06-11T09:13:13.088Z,21.37
2018-06-11T09:15:42.425Z,23.93
2018-06-11T09:18:11.653Z,22.57
2018-06-11T09:20:40.726Z,19.90
2018-06-11T09:23:09.909Z,20.83
2018-06-11T09:25:39.136Z,19.07
2018-06-11T09:28:08.339Z,23.10
2018-06-11T09:30:37.529Z,17.90
2018-06-11T09:33:06.705Z,16.80
2018-06-11T09:35:35.876Z,16.80
2018-06-11T09:38:04.990Z,19.93
2018-06-11T09:40:34.184Z,18.57
2018-06-11T09:43:03.517Z,19.93
2018-06-11T09:45:32.709Z,19.27
2018-06-11T09:48:01.911Z,17.70
2018-06-11T09:50:31.153Z,19.10
2018-06-11T09:53:00.306Z,18.10
2018-06-11T09:55:29.470Z,17.53
2018-06-11T09:57:58.645Z,16.37
2018-06-11T10:00:32.808Z,18.83
2018-06-11T10:03:01.968Z,21.33
2018-06-11T10:05:31.240Z,18.80
2018-06-11T10:08:00.587Z,16.73
2018-06-11T10:10:29.797Z,17.27
2018-06-11T10:12:58.981Z,20.00
2018-06-11T10:15:28.179Z,17.13
2018-06-11T10:17:57.453Z,15.47
2018-06-11T10:20:26.635Z,16.00
2018-06-11T10:22:55.796Z,20.70
2018-06-11T10:25:25.067Z,21.67
2018-06-11T10:27:54.197Z,20.27
2018-06-11T10:30:23.489Z,19.97
2018-06-11T10:32:52.701Z,18.93
2018-06-11T10:35:21.830Z,17.93
2018-06-11T10:37:51.073Z,22.17
2018-06-11T10:40:20.305Z,20.90
2018-06-11T10:42:49.446Z,18.77
2018-06-11T10:45:18.602Z,18.33
2018-06-11T10:47:47.703Z,19.00
2018-06-11T10:50:16.914Z,22.17
2018-06-11T10:52:46.082Z,16.00
2018-06-11T10:55:15.278Z,17.67
2018-06-11T10:57:44.480Z,22.70
2018-06-11T11:00:13.682Z,21.53
2018-06-11T11:02:42.866Z,20.77
2018-06-11T11:05:12.104Z,20.43
2018-06-11T11:07:41.396Z,20.23
2018-06-11T11:10:10.560Z,17.67
2018-06-11T11:12:39.819Z,18.50
2018-06-11T11:15:08.968Z,19.07
2018-06-11T11:17:38.161Z,18.67
2018-06-11T11:20:07.380Z,20.23
2018-06-11T11:22:36.500Z,18.13
2018-06-11T11:25:05.677Z,19.07
2018-06-11T11:27:34.806Z,17.37
2018-06-11T11:30:04.046Z,18.73
2018-06-11T11:32:33.161Z,19.90
2018-06-11T11:35:02.332Z,21.13
2018-06-11T11:37:31.488Z,21.60
2018-06-11T11:40:00.687Z,20.53
2018-06-11T11:42:29.935Z,23.47
2018-06-11T11:44:59.063Z,28.23
2018-06-11T11:47:28.347Z,25.13
2018-06-11T11:49:57.460Z,26.47
2018-06-11T11:52:26.828Z,23.87
2018-06-11T11:54:55.949Z,22.30
2018-06-11T11:57:25.187Z,21.93
2018-06-11T11:59:54.388Z,26.43
2018-06-11T12:02:23.585Z,27.27
2018-06-11T12:04:52.785Z,28.73
2018-06-11T12:07:21.987Z,26.77
2018-06-11T12:09:51.172Z,27.57
2018-06-11T12:12:20.300Z,27.27
2018-06-11T12:14:49.438Z,28.20
2018-06-11T12:17:21.593Z,26.03
2018-06-11T12:19:50.792Z,24.10
2018-06-11T12:22:19.985Z,25.53
2018-06-11T12:24:49.216Z,24.43
2018-06-11T12:27:18.456Z,23.70
2018-06-11T12:29:47.609Z,26.62
2018-06-11T12:32:16.851Z,24.70
2018-06-11T12:34:46.145Z,23.67
2018-06-11T12:37:15.304Z,23.18
2018-06-11T12:39:44.526Z,24.37
2018-06-11T12:42:13.713Z,20.72
2018-06-11T12:44:42.905Z,22.30
2018-06-11T12:47:12.060Z,20.27
2018-06-11T12:49:41.300Z,23.13
2018-06-11T12:52:10.476Z,24.85
2018-06-11T12:54:39.607Z,21.05
2018-06-11T12:57:08.840Z,20.43
2018-06-11T12:59:37.961Z,20.75
2018-06-11T13:02:07.208Z,19.67
2018-06-11T13:04:36.523Z,18.10
2018-06-11T13:07:05.678Z,17.07
2018-06-11T13:09:35.848Z,18.50
2018-06-11T13:12:05.076Z,18.23
2018-06-11T13:14:34.355Z,15.63
2018-06-11T13:17:03.620Z,17.40
2018-06-11T13:19:32.815Z,16.00
2018-06-11T13:22:02.042Z,15.63
2018-06-11T13:24:37.874Z,14.78
2018-06-11T13:27:07.059Z,14.18
2018-06-11T13:29:36.397Z,16.00
2018-06-11T13:32:05.577Z,12.25
2018-06-11T13:34:34.751Z,10.53
2018-06-11T13:37:03.985Z,16.30
2018-06-11T13:39:33.270Z,10.65
2018-06-11T13:42:02.526Z,10.98
2018-06-11T13:44:31.697Z,10.63
2018-06-11T13:47:00.813Z,9.63
2018-06-11T13:49:29.994Z,11.38
2018-06-11T13:51:59.116Z,8.38
2018-06-11T13:54:28.384Z,10.55
2018-06-11T13:56:57.576Z,10.95
2018-06-11T13:59:26.745Z,8.90
2018-06-11T14:01:55.833Z,10.50
2018-06-11T14:04:25.043Z,9.95
2018-06-11T14:06:54.192Z,11.15
2018-06-11T14:09:23.359Z,10.32
2018-06-11T14:11:52.561Z,8.85
2018-06-11T14:14:21.714Z,9.25
2018-06-11T14:16:50.849Z,10.05
2018-06-11T14:19:20.084Z,8.80
2018-06-11T14:21:49.256Z,12.07
2018-06-11T14:24:18.386Z,9.35
2018-06-11T14:26:47.556Z,9.40
2018-06-11T14:29:16.755Z,7.45
2018-06-11T14:31:45.879Z,8.58
2018-06-11T14:34:15.038Z,10.28
2018-06-11T14:36:44.179Z,7.62
2018-06-11T14:39:13.400Z,7.80
2018-06-11T14:41:42.597Z,8.48
2018-06-11T14:44:11.741Z,9.33
2018-06-11T14:46:40.982Z,8.60
2018-06-11T14:49:10.146Z,8.25
2018-06-11T14:51:39.296Z,8.53
2018-06-11T14:54:08.405Z,10.78
2018-06-11T14:56:37.605Z,9.70
2018-06-11T14:59:06.797Z,8.15
2018-06-11T15:01:35.876Z,8.03
2018-06-11T15:04:05.080Z,9.40
2018-06-11T15:06:34.268Z,6.97
2018-06-11T15:09:03.547Z,6.20
2018-06-11T15:11:32.667Z,6.97
2018-06-11T15:14:01.821Z,5.90
2018-06-11T15:16:31.086Z,8.17
2018-06-11T15:19:00.436Z,8.40
2018-06-11T15:21:29.598Z,8.53
2018-06-11T15:23:58.764Z,7.90
2018-06-11T15:26:27.928Z,8.27
2018-06-11T15:28:57.018Z,6.80
2018-06-11T15:31:26.165Z,7.23
2018-06-11T15:33:55.314Z,7.70
2018-06-11T15:36:24.412Z,6.07
2018-06-11T15:38:53.482Z,7.00
2018-06-11T15:41:22.622Z,5.60
2018-06-11T15:43:51.759Z,5.50
2018-06-11T15:46:20.848Z,6.57
2018-06-11T15:48:49.965Z,6.77
2018-06-11T15:51:19.106Z,6.63
2018-06-11T15:53:48.290Z,5.67
2018-06-11T15:56:17.530Z,7.93
2018-06-11T15:58:46.712Z,5.80
2018-06-11T16:01:15.864Z,8.03
2018-06-11T16:03:45.189Z,5.73
2018-06-11T16:06:14.612Z,5.73
2018-06-11T16:08:43.757Z,6.03
2018-06-11T16:11:12.982Z,5.77
2018-06-11T16:13:42.146Z,6.10
2018-06-11T16:16:11.279Z,6.20
2018-06-11T16:18:40.393Z,6.33
2018-06-11T16:21:09.531Z,6.20
2018-06-11T16:23:38.791Z,6.33
2018-06-11T16:26:07.956Z,6.70
2018-06-11T16:28:37.152Z,7.47
2018-06-11T16:31:06.366Z,5.80
2018-06-11T16:33:35.571Z,7.47
2018-06-11T16:36:04.844Z,6.70
2018-06-11T16:38:34.042Z,5.27
2018-06-11T16:41:03.290Z,7.23
2018-06-11T16:43:32.423Z,7.37
2018-06-11T16:46:01.585Z,5.50
2018-06-11T16:48:30.660Z,4.93
2018-06-11T16:50:59.868Z,5.73
2018-06-11T16:53:29.000Z,5.00
2018-06-11T16:55:58.139Z,4.53
2018-06-11T16:58:27.316Z,5.97
2018-06-11T17:00:56.583Z,5.67
2018-06-11T17:03:25.717Z,5.67
2018-06-11T17:05:54.856Z,5.43
2018-06-11T17:08:24.054Z,5.20
2018-06-11T17:10:53.254Z,6.73
2018-06-11T17:13:22.390Z,9.50
2018-06-11T17:15:51.747Z,5.13
2018-06-11T17:18:20.864Z,5.67
2018-06-11T17:20:50.010Z,7.07
2018-06-11T17:23:19.200Z,7.67
2018-06-11T17:25:48.362Z,5.20
2018-06-11T17:28:17.499Z,6.80
2018-06-11T17:30:46.622Z,8.90
2018-06-11T17:33:15.820Z,6.43
2018-06-11T17:35:45.203Z,5.50
2018-06-11T17:38:17.492Z,8.90
2018-06-11T17:40:46.688Z,9.23
2018-06-11T17:43:15.847Z,6.40
2018-06-11T17:45:45.004Z,7.33
2018-06-11T17:48:14.180Z,8.77
2018-06-11T17:50:43.306Z,7.27
2018-06-11T17:53:12.479Z,7.27
2018-06-11T17:55:41.653Z,7.63
2018-06-11T17:58:10.803Z,12.50
2018-06-11T18:00:40.097Z,6.60
2018-06-11T18:03:09.371Z,6.83
2018-06-11T18:05:38.649Z,7.83
2018-06-11T18:08:07.901Z,5.63
2018-06-11T18:10:37.116Z,6.57
2018-06-11T18:13:06.341Z,7.77
2018-06-11T18:15:35.478Z,7.27
2018-06-11T18:18:04.732Z,9.60
2018-06-11T18:20:33.873Z,9.73
2018-06-11T18:23:03.059Z,8.50
2018-06-11T18:25:32.210Z,9.00
2018-06-11T18:28:01.482Z,8.80
2018-06-11T18:30:30.646Z,7.10
2018-06-11T18:32:59.899Z,8.47
2018-06-11T18:35:29.145Z,9.90
2018-06-11T18:37:58.309Z,8.90
2018-06-11T18:40:27.474Z,9.10
2018-06-11T18:42:56.758Z,8.40
2018-06-11T18:45:25.920Z,6.40
2018-06-11T18:47:55.083Z,9.93
2018-06-11T18:50:24.287Z,6.03
2018-06-11T18:52:53.425Z,8.10
2018-06-11T18:55:22.545Z,10.10
2018-06-11T18:57:51.719Z,7.33
2018-06-11T19:00:20.957Z,7.63
2018-06-11T19:02:50.112Z,8.00
2018-06-11T19:05:19.232Z,7.30
2018-06-11T19:07:48.452Z,8.60
2018-06-11T19:10:17.739Z,7.40
2018-06-11T19:12:46.890Z,7.30
2018-06-11T19:15:16.129Z,8.67
2018-06-11T19:17:45.576Z,10.67
2018-06-11T19:20:14.754Z,7.33
2018-06-11T19:22:43.941Z,8.60
2018-06-11T19:25:13.267Z,8.43
2018-06-11T19:27:42.575Z,10.83
2018-06-11T19:30:11.724Z,9.80
2018-06-11T19:32:40.891Z,7.10
2018-06-11T19:35:10.073Z,7.00
2018-06-11T19:37:39.255Z,9.27
2018-06-11T19:40:08.446Z,11.57
2018-06-11T19:42:37.647Z,14.40
2018-06-11T19:45:06.925Z,7.60
2018-06-11T19:47:36.251Z,9.97
2018-06-11T19:50:05.568Z,10.27
2018-06-11T19:52:34.650Z,11.10
2018-06-11T19:55:03.975Z,11.47
2018-06-11T19:57:33.505Z,9.70
2018-06-11T20:00:02.643Z,9.23
2018-06-11T20:02:31.800Z,9.43
2018-06-11T20:05:01.036Z,10.57
2018-06-11T20:07:30.274Z,10.07
2018-06-11T20:09:59.394Z,13.90
2018-06-11T20:12:28.581Z,12.20
2018-06-11T20:14:57.872Z,13.47
2018-06-11T20:17:27.037Z,13.00
2018-06-11T20:19:56.236Z,8.67
2018-06-11T20:22:25.414Z,11.30
2018-06-11T20:24:54.559Z,16.07
2018-06-11T20:27:23.776Z,10.10
2018-06-11T20:29:53.019Z,13.20
2018-06-11T20:32:22.296Z,12.50
2018-06-11T20:34:51.386Z,11.83
2018-06-11T20:37:20.831Z,9.13
2018-06-11T20:39:49.951Z,9.53
2018-06-11T20:42:19.935Z,8.20
2018-06-11T20:44:49.113Z,8.37
2018-06-11T20:47:18.435Z,10.27
2018-06-11T20:49:47.609Z,9.17
2018-06-11T20:52:16.826Z,8.87
2018-06-11T20:54:46.052Z,8.83
2018-06-11T20:57:15.398Z,10.00
2018-06-11T20:59:44.749Z,8.13
2018-06-11T21:02:13.974Z,7.37
2018-06-11T21:04:43.304Z,8.80
2018-06-11T21:07:12.701Z,8.83
2018-06-11T21:09:43.301Z,9.20
2018-06-11T21:12:12.427Z,9.27
2018-06-11T21:14:41.660Z,11.80
2018-06-11T21:17:10.808Z,9.50
2018-06-11T21:19:40.012Z,6.70
2018-06-11T21:22:09.234Z,8.60
2018-06-11T21:24:38.430Z,8.57
2018-06-11T21:27:07.603Z,9.77
2018-06-11T21:29:36.797Z,6.87
2018-06-11T21:32:06.006Z,7.27
2018-06-11T21:34:35.163Z,8.20
2018-06-11T21:37:04.361Z,9.73
2018-06-11T21:39:33.496Z,10.43
2018-06-11T21:42:02.906Z,9.20
2018-06-11T21:44:32.110Z,7.63
2018-06-11T21:47:01.383Z,7.43
2018-06-11T21:49:30.554Z,11.20
2018-06-11T21:51:59.758Z,6.80
2018-06-11T21:54:29.017Z,9.87
2018-06-11T21:56:58.938Z,7.90
2018-06-11T21:59:28.082Z,9.30
2018-06-11T22:01:57.329Z,8.27
2018-06-11T22:04:26.496Z,7.33
2018-06-11T22:06:55.718Z,7.17
2018-06-11T22:09:24.891Z,7.67
2018-06-11T22:11:54.095Z,8.07
2018-06-11T22:14:23.312Z,6.90
2018-06-11T22:16:52.469Z,9.30
2018-06-11T22:19:21.626Z,10.63
2018-06-11T22:21:50.812Z,8.87
2018-06-11T22:24:19.932Z,14.57
2018-06-11T22:26:49.113Z,8.10
2018-06-11T22:29:18.306Z,8.77
2018-06-11T22:31:47.650Z,5.67
2018-06-11T22:34:16.802Z,9.30
2018-06-11T22:36:45.977Z,8.60
2018-06-11T22:39:15.292Z,7.07
2018-06-11T22:41:44.393Z,7.37
2018-06-11T22:44:13.627Z,7.40
2018-06-11T22:46:42.715Z,9.00
2018-06-11T22:49:12.226Z,6.40
2018-06-11T22:51:41.356Z,6.80
2018-06-11T22:54:10.531Z,8.33
2018-06-11T22:56:39.682Z,7.27
2018-06-11T22:59:08.822Z,8.00
2018-06-11T23:01:38.017Z,6.23
2018-06-11T23:04:07.324Z,11.17
2018-06-11T23:06:36.510Z,9.27
2018-06-11T23:09:07.810Z,6.30
2018-06-11T23:11:37.003Z,11.47
2018-06-11T23:14:06.293Z,11.13
2018-06-11T23:16:35.549Z,13.17
2018-06-11T23:19:04.724Z,11.83
2018-06-11T23:21:33.933Z,11.47
2018-06-11T23:24:03.236Z,7.73
2018-06-11T23:26:32.389Z,8.20
2018-06-11T23:29:01.630Z,15.80
2018-06-11T23:31:30.821Z,11.83
2018-06-11T23:34:00.059Z,12.90
2018-06-11T23:36:29.373Z,10.83
2018-06-11T23:38:59.157Z,8.23
2018-06-11T23:41:44.797Z,10.10
2018-06-11T23:47:32.975Z,13.73
2018-06-11T23:50:07.813Z,9.53
2018-06-11T23:52:37.111Z,9.97
2018-06-11T23:55:06.408Z,11.77
2018-06-11T23:57:35.613Z,10.37
